Flight Track Log - Related Links

Times and Time Zones

All times are in EDT time to prevent confusion due to time zone crossing. See the AAL1684 flight status page for this flight to view local times or setup timezone preferences in your user account.

Time Position Orientation Groundspeed Altitude Reporting Facility
EDT Latitude Longitude Course Direction KTS MPH feet Rate Location/Type
Wed 08:23:00 AM 18.8314 -77.9786 349° North  Level FlightAware Approximate
Wed 08:24:00 AM 18.9406 -78.0004 349° North  Level FlightAware Approximate
Wed 08:25:00 AM 19.0498 -78.0223 349° North  Level FlightAware Approximate
Wed 08:26:00 AM 19.1591 -78.0441 349° North  Level FlightAware Approximate
Wed 08:27:00 AM 19.2683 -78.0660 349° North  Level FlightAware Approximate
Wed 08:28:00 AM 19.3775 -78.0879 349° North  Level FlightAware Approximate
Wed 08:29:00 AM 19.4867 -78.1099 349° North  Level FlightAware Approximate
Wed 08:30:00 AM 19.5959 -78.1319 349° North  Level FlightAware Approximate
Wed 08:31:00 AM 19.7051 -78.1539 349° North  Level FlightAware Approximate
Wed 08:32:00 AM 19.8143 -78.1759 349° North  Level FlightAware Approximate
Wed 08:33:00 AM 19.9235 -78.1980 349° North  Level FlightAware Approximate
Wed 08:34:00 AM 20.0267 -78.2194 349° North  Level FlightAware Approximate
Wed 08:35:00 AM 20.1358 -78.2420 349° North  Level FlightAware Approximate
Wed 08:36:00 AM 20.2449 -78.2647 349° North  Level FlightAware Approximate
Wed 08:37:00 AM 20.3569 -78.2880 349° North  Level FlightAware Approximate
Wed 08:38:00 AM 20.4689 -78.3113 349° North  Level FlightAware Approximate
Wed 08:39:00 AM 20.5809 -78.3347 349° North  Level FlightAware Approximate
Wed 08:40:00 AM 20.6929 -78.3581 349° North  Level FlightAware Approximate
Wed 08:41:00 AM 20.8049 -78.3816 349° North  Level FlightAware Approximate
Wed 08:42:00 AM 20.9169 -78.4051 349° North  Level FlightAware Approximate
Wed 08:43:00 AM 21.0289 -78.4286 349° North  Level FlightAware Approximate
Wed 08:44:00 AM 21.1408 -78.4521 349° North  Level FlightAware Approximate
Wed 08:45:00 AM 21.2528 -78.4757 349° North  Level FlightAware Approximate
Wed 08:46:00 AM 21.3648 -78.4994 349° North  Level FlightAware Approximate
Wed 08:47:00 AM 21.4768 -78.5230 349° North  Level FlightAware Approximate
Wed 08:48:00 AM 21.5887 -78.5467 349° North  Level FlightAware Approximate
Wed 08:49:00 AM 21.7007 -78.5705 349° North  Level FlightAware Approximate
Wed 08:50:00 AM 21.8127 -78.5942 349° North  Level FlightAware Approximate
Wed 08:51:00 AM 21.9246 -78.6180 349° North  Level FlightAware Approximate
Wed 08:52:00 AM 22.0366 -78.6419 349° North  Level FlightAware Approximate
Wed 08:53:00 AM 22.1516 -78.6664 349° North  Level FlightAware Approximate
Wed 08:54:00 AM 22.2666 -78.6910 349° North  Level FlightAware Approximate
Wed 08:55:00 AM 22.3816 -78.7156 349° North  Level FlightAware Approximate
Wed 08:56:00 AM 22.4967 -78.7403 349° North  Level FlightAware Approximate
Wed 08:57:00 AM 22.6117 -78.7650 349° North  Level FlightAware Approximate
Wed 08:58:00 AM 22.7267 -78.7898 349° North  Level FlightAware Approximate
Wed 08:59:00 AM 22.8417 -78.8146 349° North  Level FlightAware Approximate
Wed 08:59:58 AM 23.1639 -78.8814 349° North 412 474 30,000  Level Miami Center
Wed 09:00:00 AM 22.9453 -78.8369 349° North  Level FlightAware Approximate
Wed 09:00:58 AM 23.2931 -78.9128 347° North 448 516 30,000  Level Miami Center
Wed 09:01:00 AM 23.0489 -78.8593 349° North  Level FlightAware Approximate
Wed 09:01:58 AM 23.4181 -78.9375 350° North 462 532 30,000  Level Miami Center
Wed 09:02:00 AM 23.1525 -78.8818 349° North  Level FlightAware Approximate
Wed 09:02:58 AM 23.5472 -78.9714 346° North 467 537 30,000  Level Miami Center
Wed 09:03:00 AM 23.2562 -78.9043 349° North  Level FlightAware Approximate
Wed 09:03:58 AM 23.6783 -78.9983 349° North 472 543 30,000  Level Miami Center
Wed 09:04:00 AM 23.3598 -78.9268 349° North  Level FlightAware Approximate
Wed 09:04:58 AM 23.8097 -79.0278 348° North 465 535 30,000  Level Miami Center
Wed 09:05:00 AM 23.4634 -78.9493 349° North  Level FlightAware Approximate
Wed 09:05:58 AM 23.9325 -79.0550 349° North 470 541 30,000  Level Miami Center
Wed 09:06:58 AM 24.0633 -79.1050 341° North 464 534 30,000  Level Miami Center
Wed 09:07:58 AM 24.1797 -79.1594 337° Northwest 464 534 30,000  Level Miami Center
Wed 09:08:58 AM 24.2772 -79.2022 338° Northwest 451 519 30,000 -150 Level Miami Center
Wed 09:09:58 AM 24.4183 -79.2597 340° North 451 519 29,700 -700 Descending Miami Center
Wed 09:10:58 AM 24.5303 -79.3167 335° Northwest 451 519 28,600 -1,050 Descending Miami Center
Wed 09:11:58 AM 24.6400 -79.3692 336° Northwest 444 511 27,600 -1,350 Descending Miami Center
Wed 09:12:58 AM 24.7500 -79.4217 337° Northwest 433 498 25,900 -2,000 Descending Miami Center
Wed 09:13:58 AM 24.8597 -79.4744 336° Northwest 433 498 23,600 -2,250 Descending Miami Center
Wed 09:14:58 AM 24.9633 -79.5247 336° Northwest 421 484 21,400 -2,200 Descending Miami Center
Wed 09:15:58 AM 25.0628 -79.5728 336° Northwest 400 460 19,200 -2,050 Descending Miami Center
Wed 09:16:58 AM 25.1600 -79.6183 337° Northwest 384 442 17,300 -2,056 Descending Miami Center
Wed 09:17:46 AM 25.2264 -79.6522 335° Northwest 363 418 15,500 -2,278 Descending Miami Center
Wed 09:18:17 AM 25.2803 -79.6786 336° Northwest 359 413 14,300 -2,167 Descending Miami Center
Wed 09:18:58 AM 25.3403 -79.7031 340° North 361 415 12,900 -2,036 Descending Miami Center
Wed 09:19:13 AM 25.3608 -79.7172 328° Northwest 352 405 12,400 -1,000 Descending Miami Center
Wed 09:19:58 AM 25.4122 -79.7644 320° Northwest 327 376 11,900 -393 Descending Miami Center
Wed 09:20:14 AM 25.4264 -79.7856 307° West 317 365 12,000  Climbing Miami Center
Wed 09:20:58 AM 25.4692 -79.8417 310° West 321 369 11,900  Descending Miami Center
Wed 09:21:21 AM 25.4853 -79.8767 297° West 312 359 12,000  Climbing Miami Center
Wed 09:21:58 AM 25.5178 -79.9167 312° West 314 361 11,900  Descending Miami Center
Wed 09:22:16 AM 25.5339 -79.9469 301° West 309 356 12,000  Climbing Miami Center
Wed 09:22:58 AM 25.5703 -79.9964 309° West 314 361 11,900 -492 Descending Miami Center
Wed 09:23:17 AM 25.5822 -80.0267 294° West 317 365 11,500 -1,300 Descending Miami Center
Wed 09:23:58 AM 25.6208 -80.0758 311° West 319 367 10,600 -1,059 Descending Miami Center
Wed 09:24:25 AM 25.6389 -80.1108 300° West 279 321 10,300 -900 Descending Miami Center
Wed 09:24:58 AM 25.6653 -80.1464 309° West 302 348 9,700 -1,309 Descending Miami Center
Wed 09:25:20 AM 25.6667 -80.1739 273° West 265 305 9,100 -1,500 Descending Miami Center
Wed 09:25:58 AM 25.6844 -80.2206 293° West 271 312 8,200 -1,254 Descending Miami Center
Wed 09:26:27 AM 25.6897 -80.2644 278° West 255 293 7,700 -1,000 Descending Miami Center
Wed 09:26:58 AM 25.7036 -80.2947 297° West 255 293 7,200 -1,475 Descending Miami Center
Wed 09:27:28 AM 25.7069 -80.3364 275° West 228 262 6,200 -1,978 Descending Miami Center
Wed 09:28:29 AM 25.7053 -80.4056 268° West 233 268 4,200 -1,552 Descending Miami Center
Wed 09:29:24 AM 25.6994 -80.4700 264° West 220 253 3,200 -590 Descending Miami Center
Wed 09:30:31 AM 25.7489 -80.4992 332° Northwest 208 239 3,000 -326 Descending Miami Center
Wed 09:31:33 AM 25.7792 -80.4586 50° Northeast 188 216 2,500 -683 Descending Miami Center
Wed 09:32:34 AM 25.7806 -80.4008 88° East 179 206 1,600 -885 Descending Miami Center

Login

Don't have an account? Register now (free) for customized features, flight alerts, and more!